Time;durP1;ratioP1;P1;durP2;ratioP2;P2;SDS_P1;SDS_P2;PMS_P1;PMS_P2;Temp;Humidity;BMP_temperature;BMP_pressure;BME280_temperature;BME280_humidity;BME280_pressure;Samples;Min_cycle;Max_cycle;Signal;HPM_P1;HPM_P2
2022/03/13 00:01:34;;;;;;;9.00;7.23;;;8.40;99.90;;;;;;5033094;28;20449;-81
2022/03/13 00:04:04;;;;;;;13.67;7.40;;;8.30;99.90;;;;;;5037242;28;20512;-81
2022/03/13 00:06:33;;;;;;;12.00;8.10;;;8.30;99.90;;;;;;5038643;28;20486;-82
2022/03/13 00:09:04;;;;;;;11.43;7.27;;;8.30;99.90;;;;;;5036965;28;20453;-81
2022/03/13 00:11:32;;;;;;;9.83;6.90;;;8.30;99.90;;;;;;5020287;28;20450;-82
2022/03/13 00:13:59;;;;;;;11.90;7.90;;;8.40;99.90;;;;;;5018912;28;20454;-81
2022/03/13 00:16:26;;;;;;;12.33;7.90;;;8.30;99.90;;;;;;5017591;28;20574;-81
2022/03/13 00:18:53;;;;;;;12.00;7.47;;;8.30;99.90;;;;;;5034652;28;20450;-81
2022/03/13 00:21:21;;;;;;;12.43;8.20;;;8.30;99.90;;;;;;5038734;28;20449;-79
2022/03/13 00:23:49;;;;;;;13.10;7.80;;;8.20;99.90;;;;;;5038567;28;20464;-80
2022/03/13 00:26:18;;;;;;;10.40;6.97;;;8.20;99.90;;;;;;5038142;28;20484;-81
2022/03/13 00:28:46;;;;;;;11.23;7.20;;;8.10;99.90;;;;;;5037723;28;20453;-81
2022/03/13 00:31:13;;;;;;;11.23;7.57;;;8.10;99.90;;;;;;5038811;28;20461;-81
2022/03/13 00:33:40;;;;;;;11.43;7.60;;;8.10;99.90;;;;;;5033634;28;20450;-81
2022/03/13 00:36:07;;;;;;;10.83;7.40;;;8.00;99.90;;;;;;5038918;28;20476;-82
2022/03/13 00:38:34;;;;;;;11.00;7.97;;;8.00;99.90;;;;;;5031228;28;20497;-80
2022/03/13 00:41:01;;;;;;;11.80;7.70;;;8.00;99.90;;;;;;5036051;28;20854;-81
2022/03/13 00:43:29;;;;;;;9.03;6.90;;;8.10;99.90;;;;;;5037313;28;20453;-81
2022/03/13 00:45:56;;;;;;;13.17;7.67;;;8.10;99.90;;;;;;5036187;28;20500;-81
2022/03/13 00:48:26;;;;;;;9.97;6.90;;;8.00;99.90;;;;;;5037866;28;20467;-81
2022/03/13 00:50:53;;;;;;;11.63;7.10;;;8.00;99.90;;;;;;5038196;28;20460;-81
2022/03/13 00:53:20;;;;;;;11.20;7.77;;;7.90;99.90;;;;;;5037964;28;20464;-81
2022/03/13 00:55:46;;;;;;;11.53;7.30;;;7.90;99.90;;;;;;5038117;28;20480;-81
2022/03/13 00:58:13;;;;;;;10.43;7.70;;;7.90;99.90;;;;;;5037188;28;20469;-80
2022/03/13 01:00:42;;;;;;;9.87;7.20;;;7.80;99.90;;;;;;5038875;28;20461;-80
2022/03/13 01:03:17;;;;;;;9.57;6.80;;;7.80;99.90;;;;;;5036697;28;20950;-80
2022/03/13 01:05:44;;;;;;;12.83;7.90;;;7.70;99.90;;;;;;5037439;28;20484;-82
2022/03/13 01:08:11;;;;;;;9.87;6.47;;;7.60;99.90;;;;;;5036111;28;20973;-80
2022/03/13 01:10:37;;;;;;;10.07;7.30;;;7.60;99.90;;;;;;5037146;28;20535;-81
2022/03/13 01:13:04;;;;;;;13.50;8.80;;;7.50;99.90;;;;;;5036087;28;20461;-82
2022/03/13 01:15:32;;;;;;;16.50;10.20;;;7.50;99.90;;;;;;5034780;28;20465;-81
2022/03/13 01:18:00;;;;;;;20.70;12.97;;;7.50;99.90;;;;;;5037020;28;20961;-80
2022/03/13 01:20:27;;;;;;;28.00;12.23;;;7.50;99.90;;;;;;5037797;28;21022;-81
2022/03/13 01:22:54;;;;;;;32.80;19.70;;;7.40;99.90;;;;;;5037277;28;20451;-80
2022/03/13 01:25:20;;;;;;;31.93;18.70;;;7.50;99.90;;;;;;5036146;28;20472;-81
2022/03/13 01:27:47;;;;;;;29.30;17.23;;;7.50;99.90;;;;;;5037613;28;20464;-80
2022/03/13 01:30:14;;;;;;;18.00;10.97;;;7.50;99.90;;;;;;5019686;28;20465;-80
2022/03/13 01:32:41;;;;;;;24.03;13.40;;;7.50;99.90;;;;;;5030321;28;20507;-81
2022/03/13 01:35:10;;;;;;;14.60;9.83;;;7.40;99.90;;;;;;5036606;28;20473;-81
2022/03/13 01:37:40;;;;;;;12.70;8.20;;;7.30;99.90;;;;;;5037589;28;20477;-81
2022/03/13 01:40:09;;;;;;;15.83;8.17;;;7.20;99.90;;;;;;5037192;28;20481;-81
2022/03/13 01:42:37;;;;;;;13.77;8.30;;;7.20;99.90;;;;;;5041070;28;20459;-80
2022/03/13 01:45:05;;;;;;;11.60;7.00;;;7.20;99.90;;;;;;5043055;28;20499;-80
2022/03/13 01:47:31;;;;;;;11.33;7.00;;;7.20;99.90;;;;;;5045383;28;20572;-79
2022/03/13 01:49:58;;;;;;;13.73;6.97;;;7.20;99.90;;;;;;5042829;28;20453;-80
2022/03/13 01:52:29;;;;;;;10.03;6.60;;;7.20;99.90;;;;;;5045739;28;20453;-78
2022/03/13 01:54:57;;;;;;;10.30;7.20;;;7.20;99.90;;;;;;5044677;28;20540;-80
2022/03/13 01:57:24;;;;;;;9.57;6.40;;;7.20;99.90;;;;;;5040663;28;20455;-80
2022/03/13 01:59:53;;;;;;;11.00;6.43;;;7.10;99.90;;;;;;5028629;28;20462;-80
2022/03/13 02:02:21;;;;;;;10.53;6.80;;;7.00;99.90;;;;;;5031740;28;20551;-80
2022/03/13 02:04:52;;;;;;;9.60;6.70;;;7.00;99.90;;;;;;5035438;28;20580;-80
2022/03/13 02:07:19;;;;;;;9.77;7.83;;;6.90;99.90;;;;;;5036722;28;20465;-81
2022/03/13 02:09:48;;;;;;;9.90;6.07;;;7.00;99.90;;;;;;5023295;28;20456;-81
2022/03/13 02:12:17;;;;;;;10.30;6.53;;;6.90;99.90;;;;;;5017117;28;20457;-81
2022/03/13 02:14:44;;;;;;;10.03;7.00;;;6.90;99.90;;;;;;5031446;28;20532;-81
2022/03/13 02:17:11;;;;;;;15.23;7.50;;;6.80;99.90;;;;;;5035280;28;20461;-80
2022/03/13 02:19:37;;;;;;;11.07;7.17;;;6.80;99.90;;;;;;5025567;28;20464;-80
2022/03/13 02:22:05;;;;;;;9.23;6.87;;;6.80;99.90;;;;;;5031361;28;20467;-81
2022/03/13 02:24:34;;;;;;;12.27;6.70;;;6.80;99.90;;;;;;5034558;28;20536;-81
2022/03/13 02:27:03;;;;;;;9.13;6.07;;;6.80;99.90;;;;;;5036406;28;21263;-79
2022/03/13 02:29:30;;;;;;;9.47;6.37;;;6.90;99.90;;;;;;5024117;28;20464;-80
2022/03/13 02:31:58;;;;;;;13.70;7.20;;;7.00;99.90;;;;;;5037470;28;20459;-81
2022/03/13 02:34:26;;;;;;;10.83;6.53;;;7.00;99.90;;;;;;5034875;28;20564;-81
2022/03/13 02:37:04;;;;;;;9.97;6.53;;;7.00;99.90;;;;;;5037226;28;20443;-80
2022/03/13 02:39:36;;;;;;;10.27;6.37;;;6.90;99.90;;;;;;5035571;28;20528;-82
2022/03/13 02:42:06;;;;;;;13.50;7.73;;;7.00;99.90;;;;;;5036598;28;20515;-81
2022/03/13 02:44:33;;;;;;;11.43;7.20;;;7.00;99.90;;;;;;5035863;28;20472;-81
2022/03/13 02:47:02;;;;;;;9.90;6.57;;;6.90;99.90;;;;;;5034308;28;20492;-81
2022/03/13 02:49:31;;;;;;;11.00;6.87;;;7.00;99.90;;;;;;5036424;28;20452;-82
2022/03/13 02:52:00;;;;;;;9.63;6.57;;;7.00;99.90;;;;;;5034196;28;20460;-79
2022/03/13 02:54:27;;;;;;;10.60;6.03;;;7.10;99.90;;;;;;5034110;28;20576;-80
2022/03/13 02:56:56;;;;;;;10.93;7.47;;;7.10;99.90;;;;;;5031463;28;20453;-81
2022/03/13 02:59:23;;;;;;;9.73;6.50;;;7.10;99.90;;;;;;5037302;28;20456;-80
2022/03/13 03:01:50;;;;;;;11.73;7.17;;;7.10;99.90;;;;;;5040380;28;20459;-80
2022/03/13 03:04:17;;;;;;;8.17;7.03;;;7.00;99.90;;;;;;5038345;28;20860;-81
2022/03/13 03:06:54;;;;;;;10.60;6.47;;;7.00;99.90;;;;;;5040138;28;20480;-82
2022/03/13 03:09:22;;;;;;;12.03;6.90;;;7.00;99.90;;;;;;5037398;28;20818;-81
2022/03/13 03:11:49;;;;;;;9.80;6.30;;;7.10;99.90;;;;;;5040052;28;20460;-81
2022/03/13 03:14:17;;;;;;;8.67;5.90;;;7.10;99.90;;;;;;5038490;28;20488;-81
2022/03/13 03:16:45;;;;;;;11.30;6.50;;;7.00;99.90;;;;;;5038787;28;20453;-81
2022/03/13 03:19:12;;;;;;;13.20;7.37;;;7.00;99.90;;;;;;5039016;28;20460;-81
2022/03/13 03:21:39;;;;;;;10.27;6.03;;;6.90;99.90;;;;;;5039199;28;20456;-81
2022/03/13 03:24:18;;;;;;;11.10;7.20;;;6.90;99.90;;;;;;5038757;28;20456;-80
2022/03/13 03:26:45;;;;;;;10.47;6.70;;;7.00;99.90;;;;;;5034450;28;20492;-81
2022/03/13 03:29:12;;;;;;;11.20;7.73;;;6.90;99.90;;;;;;5039137;28;20458;-81
2022/03/13 03:31:43;;;;;;;12.00;7.17;;;6.90;99.90;;;;;;5040275;28;20448;-80
2022/03/13 03:34:12;;;;;;;10.60;7.40;;;6.80;99.90;;;;;;5038938;28;20448;-79
2022/03/13 03:36:44;;;;;;;10.13;6.57;;;6.70;99.90;;;;;;5035372;28;20824;-79
2022/03/13 03:39:12;;;;;;;11.43;6.20;;;6.70;99.90;;;;;;5037786;28;20511;-78
2022/03/13 03:41:41;;;;;;;8.93;6.90;;;6.60;99.90;;;;;;5039624;28;20465;-81
2022/03/13 03:44:07;;;;;;;10.43;5.97;;;6.60;99.90;;;;;;5038535;28;20460;-81
2022/03/13 03:46:35;;;;;;;9.33;6.80;;;6.60;99.90;;;;;;5038214;28;20495;-81
2022/03/13 03:49:04;;;;;;;9.83;5.47;;;6.50;99.90;;;;;;5039036;28;20912;-81
2022/03/13 03:51:31;;;;;;;10.13;6.17;;;6.40;99.90;;;;;;5038816;28;20452;-81
2022/03/13 03:53:58;;;;;;;11.90;7.07;;;6.30;99.90;;;;;;5037498;28;20455;-81
2022/03/13 03:56:25;;;;;;;12.20;7.30;;;6.30;99.90;;;;;;5036596;28;20534;-80
2022/03/13 03:58:52;;;;;;;10.50;6.20;;;6.30;99.90;;;;;;5039081;28;20462;-82
2022/03/13 04:01:19;;;;;;;9.57;5.63;;;6.30;99.90;;;;;;5037600;28;20464;-80
2022/03/13 04:03:46;;;;;;;10.60;6.80;;;6.20;99.90;;;;;;5038143;28;20965;-82
2022/03/13 04:06:14;;;;;;;10.80;7.10;;;6.10;99.90;;;;;;5037791;28;20526;-80
2022/03/13 04:08:41;;;;;;;10.33;6.27;;;6.10;99.90;;;;;;5035958;28;20963;-80
2022/03/13 04:11:08;;;;;;;9.63;5.60;;;6.00;99.90;;;;;;5038478;28;20540;-81
2022/03/13 04:13:37;;;;;;;10.17;6.60;;;6.00;99.90;;;;;;5037606;28;20559;-81
2022/03/13 04:16:05;;;;;;;10.40;6.67;;;5.90;99.90;;;;;;5038125;28;20557;-81
2022/03/13 04:18:32;;;;;;;8.57;5.47;;;5.90;99.90;;;;;;5033294;28;20457;-81
2022/03/13 04:20:59;;;;;;;9.87;6.00;;;5.80;99.90;;;;;;5030934;28;20463;-81
2022/03/13 04:23:27;;;;;;;10.07;6.47;;;5.80;99.90;;;;;;5036458;28;20461;-81
2022/03/13 04:25:54;;;;;;;11.33;7.00;;;5.70;99.90;;;;;;5038521;28;20476;-80
2022/03/13 04:28:22;;;;;;;11.70;7.10;;;5.70;99.90;;;;;;5036437;28;20483;-79
2022/03/13 04:30:52;;;;;;;13.03;7.77;;;5.60;99.90;;;;;;5035396;28;20461;-80
2022/03/13 04:33:19;;;;;;;9.80;6.60;;;5.60;99.90;;;;;;5016351;28;20449;-81
2022/03/13 04:35:46;;;;;;;10.40;6.90;;;5.60;99.90;;;;;;5023111;28;20469;-82
2022/03/13 04:38:12;;;;;;;10.20;6.37;;;5.50;99.90;;;;;;5038245;28;21284;-80
2022/03/13 04:40:41;;;;;;;10.77;7.10;;;5.50;99.90;;;;;;5037955;28;20452;-80
2022/03/13 04:43:08;;;;;;;9.80;5.97;;;5.40;99.90;;;;;;5019683;28;20458;-81
2022/03/13 04:45:35;;;;;;;9.30;6.50;;;5.40;99.90;;;;;;5029515;28;20479;-81
2022/03/13 04:48:02;;;;;;;9.57;7.00;;;5.30;99.90;;;;;;5037824;28;20511;-80
2022/03/13 04:50:29;;;;;;;9.47;6.10;;;5.30;99.90;;;;;;5038033;28;20642;-81
2022/03/13 04:52:56;;;;;;;8.77;6.83;;;5.20;99.90;;;;;;5037461;28;20949;-80
2022/03/13 04:55:23;;;;;;;8.50;6.30;;;5.20;99.90;;;;;;5037188;28;20472;-80
2022/03/13 04:57:51;;;;;;;9.50;6.60;;;5.20;99.90;;;;;;5037762;28;20997;-81
2022/03/13 05:00:19;;;;;;;9.70;6.27;;;5.10;99.90;;;;;;5037617;28;20887;-82
2022/03/13 05:02:45;;;;;;;10.43;6.27;;;5.10;99.90;;;;;;5038403;28;20462;-80
2022/03/13 05:05:12;;;;;;;10.63;6.33;;;5.10;99.90;;;;;;5036835;28;20489;-81
2022/03/13 05:07:39;;;;;;;11.80;7.30;;;5.00;99.90;;;;;;5037590;28;20490;-81
2022/03/13 05:10:06;;;;;;;11.63;6.67;;;5.00;99.90;;;;;;5037244;28;20459;-81
2022/03/13 05:12:33;;;;;;;10.47;6.87;;;4.90;99.90;;;;;;5038140;28;20453;-82
2022/03/13 05:15:01;;;;;;;10.50;7.30;;;4.90;99.90;;;;;;5035933;28;20474;-80
2022/03/13 05:17:28;;;;;;;9.67;6.67;;;4.90;99.90;;;;;;5037340;28;20461;-80
2022/03/13 05:19:55;;;;;;;9.23;6.27;;;4.90;99.90;;;;;;5037489;28;20450;-79
2022/03/13 05:22:22;;;;;;;12.00;7.00;;;4.80;99.90;;;;;;5037180;28;20537;-80
2022/03/13 05:24:49;;;;;;;10.57;6.10;;;4.80;99.90;;;;;;5033447;28;20847;-81
2022/03/13 05:27:16;;;;;;;9.13;7.13;;;4.80;99.90;;;;;;5038621;28;20519;-80
2022/03/13 05:29:42;;;;;;;11.10;6.97;;;4.70;99.90;;;;;;5025155;28;20951;-79
2022/03/13 05:32:11;;;;;;;10.43;6.77;;;4.70;99.90;;;;;;5038469;28;20975;-79
2022/03/13 05:34:38;;;;;;;9.87;6.87;;;4.60;99.90;;;;;;5037681;28;20481;-79
2022/03/13 05:37:06;;;;;;;10.60;7.30;;;4.60;99.90;;;;;;5037114;28;20997;-79
2022/03/13 05:39:33;;;;;;;11.67;7.40;;;4.60;99.90;;;;;;5034623;28;20967;-80
2022/03/13 05:41:59;;;;;;;11.70;7.30;;;4.60;99.90;;;;;;5036410;28;20454;-79
2022/03/13 05:44:27;;;;;;;12.00;7.20;;;4.50;99.90;;;;;;5034730;28;20481;-79
2022/03/13 05:46:54;;;;;;;10.13;6.50;;;4.50;99.90;;;;;;5037289;28;20510;-80
2022/03/13 05:49:23;;;;;;;11.63;6.87;;;4.50;99.90;;;;;;5037495;28;20536;-80
2022/03/13 05:51:50;;;;;;;11.23;6.77;;;4.50;99.90;;;;;;5036830;28;20452;-80
2022/03/13 05:54:16;;;;;;;8.93;6.70;;;4.50;99.90;;;;;;5030706;28;20801;-81
2022/03/13 05:56:43;;;;;;;8.90;6.37;;;4.50;99.90;;;;;;5036124;28;20962;-80
2022/03/13 05:59:10;;;;;;;11.50;7.47;;;4.60;99.90;;;;;;5030678;28;20840;-78
2022/03/13 06:01:38;;;;;;;12.27;7.50;;;4.60;99.90;;;;;;5016218;28;20433;-81
2022/03/13 06:04:07;;;;;;;11.03;7.40;;;4.60;99.90;;;;;;5031044;28;20540;-78
2022/03/13 06:06:36;;;;;;;10.63;6.40;;;4.70;99.90;;;;;;5035863;28;20473;-79
2022/03/13 06:09:03;;;;;;;10.67;6.73;;;4.70;99.90;;;;;;5036530;28;21182;-79
2022/03/13 06:11:30;;;;;;;11.80;6.83;;;4.80;99.90;;;;;;5035735;28;20929;-78
2022/03/13 06:13:57;;;;;;;11.43;7.53;;;4.80;99.90;;;;;;5028758;28;20451;-79
2022/03/13 06:16:24;;;;;;;8.93;6.37;;;5.00;99.90;;;;;;5028817;28;20475;-80
2022/03/13 06:18:51;;;;;;;10.50;6.73;;;5.10;99.90;;;;;;5037790;28;20554;-81
2022/03/13 06:21:18;;;;;;;11.53;6.60;;;5.00;99.90;;;;;;5037487;28;20820;-80
2022/03/13 06:23:46;;;;;;;11.17;6.83;;;5.00;99.90;;;;;;5036928;28;20459;-82
2022/03/13 06:26:13;;;;;;;14.83;7.40;;;5.00;99.90;;;;;;5035635;28;20445;-79
2022/03/13 06:28:40;;;;;;;11.13;7.30;;;5.20;99.90;;;;;;5036184;28;20457;-83
2022/03/13 06:31:07;;;;;;;11.60;7.00;;;5.30;99.90;;;;;;5032894;28;20546;-82
2022/03/13 06:33:34;;;;;;;13.70;7.00;;;5.40;99.90;;;;;;5031647;28;20465;-83
2022/03/13 06:36:01;;;;;;;11.43;7.17;;;;;;;;;;5037223;28;20536;-83
2022/03/13 06:38:28;;;;;;;14.30;6.90;;;5.50;99.90;;;;;;5034483;28;20832;-82
2022/03/13 06:40:56;;;;;;;10.43;6.37;;;5.10;99.90;;;;;;5032490;28;20459;-83
2022/03/13 06:43:26;;;;;;;10.80;6.93;;;5.40;99.90;;;;;;5032167;28;20461;-83
2022/03/13 06:45:52;;;;;;;9.90;5.90;;;5.40;99.90;;;;;;5030710;28;20484;-83
2022/03/13 06:48:21;;;;;;;12.30;6.80;;;5.40;99.90;;;;;;5029744;28;20494;-82
2022/03/13 06:50:48;;;;;;;13.17;7.40;;;5.50;99.90;;;;;;5035669;28;20602;-83
2022/03/13 06:53:15;;;;;;;11.77;7.70;;;5.70;99.90;;;;;;5034300;28;20861;-83
2022/03/13 06:55:42;;;;;;;13.60;7.73;;;5.80;99.90;;;;;;5035956;28;20480;-83
2022/03/13 06:58:13;;;;;;;10.93;6.77;;;5.70;99.90;;;;;;5035116;28;20447;-83
2022/03/13 07:00:40;;;;;;;12.20;6.33;;;5.80;99.90;;;;;;5033870;28;20828;-83
2022/03/13 07:03:07;;;;;;;10.00;6.27;;;6.00;99.90;;;;;;5035834;28;20864;-83
2022/03/13 07:05:37;;;;;;;11.07;7.07;;;6.10;99.90;;;;;;5033741;28;20577;-82
2022/03/13 07:08:04;;;;;;;8.07;6.00;;;6.40;99.90;;;;;;5037092;28;20502;-83
2022/03/13 07:10:31;;;;;;;13.50;6.70;;;6.50;99.90;;;;;;5031047;28;20448;-83
2022/03/13 07:12:59;;;;;;;9.80;6.60;;;6.70;99.90;;;;;;5032684;28;20813;-84
2022/03/13 07:15:29;;;;;;;8.90;6.20;;;7.10;99.90;;;;;;5027087;28;21157;-82
2022/03/13 07:17:56;;;;;;;9.40;6.60;;;7.20;99.90;;;;;;5033999;28;20451;-82
2022/03/13 07:20:23;;;;;;;11.90;6.67;;;7.30;99.90;;;;;;5032770;28;20444;-81
2022/03/13 07:22:52;;;;;;;11.80;6.90;;;7.50;99.90;;;;;;5031748;28;20949;-83
2022/03/13 07:25:19;;;;;;;11.90;6.93;;;7.60;99.90;;;;;;5033162;28;20476;-83
2022/03/13 07:27:46;;;;;;;10.57;6.30;;;7.80;99.90;;;;;;5031989;28;20480;-83
2022/03/13 07:30:14;;;;;;;9.73;6.40;;;7.90;99.90;;;;;;5030555;28;20468;-83
2022/03/13 07:32:43;;;;;;;12.53;7.10;;;8.00;99.90;;;;;;5032607;28;21003;-83
2022/03/13 07:35:11;;;;;;;10.80;7.10;;;8.10;99.90;;;;;;5029988;28;20475;-83
2022/03/13 07:37:38;;;;;;;10.13;6.47;;;8.20;99.90;;;;;;5028750;28;20452;-83
2022/03/13 07:40:05;;;;;;;13.20;6.60;;;8.20;99.90;;;;;;5030229;28;20457;-83
2022/03/13 07:42:32;;;;;;;13.47;7.70;;;8.30;99.90;;;;;;5031190;28;20496;-83
2022/03/13 07:44:59;;;;;;;11.40;7.57;;;8.40;99.90;;;;;;5027150;28;20478;-82
2022/03/13 07:47:26;;;;;;;8.80;6.37;;;8.50;99.90;;;;;;5029927;28;20463;-83
2022/03/13 07:49:57;;;;;;;14.93;8.03;;;8.90;99.90;;;;;;5031490;28;20961;-83
2022/03/13 07:52:24;;;;;;;40.10;17.07;;;8.80;99.90;;;;;;5034991;28;20463;-82
2022/03/13 07:54:51;;;;;;;17.70;10.17;;;9.20;99.90;;;;;;5039294;28;20474;-82
2022/03/13 07:57:17;;;;;;;19.83;12.43;;;9.50;99.90;;;;;;5038728;28;20461;-84
2022/03/13 07:59:47;;;;;;;11.90;7.60;;;9.80;99.90;;;;;;5040074;28;20459;-84
2022/03/13 08:02:14;;;;;;;13.80;8.23;;;10.20;99.90;;;;;;5039843;28;20464;-83
2022/03/13 08:04:41;;;;;;;11.33;7.63;;;10.60;99.90;;;;;;5039140;28;20482;-83
2022/03/13 08:07:09;;;;;;;10.13;7.87;;;11.00;99.90;;;;;;5032819;28;20479;-84
2022/03/13 08:09:36;;;;;;;10.30;6.97;;;11.30;99.90;;;;;;5036916;28;20869;-84
2022/03/13 08:12:04;;;;;;;12.27;7.50;;;11.30;99.90;;;;;;5029511;28;20457;-84
2022/03/13 08:14:30;;;;;;;11.70;7.80;;;11.50;97.80;;;;;;5030352;28;20552;-84
2022/03/13 08:16:57;;;;;;;9.87;6.70;;;11.50;99.70;;;;;;5036685;28;20463;-85
2022/03/13 08:19:24;;;;;;;14.10;8.90;;;11.60;96.60;;;;;;5029899;28;20452;-83
2022/03/13 08:21:54;;;;;;;11.20;7.80;;;11.70;97.40;;;;;;5028317;28;20609;-83
2022/03/13 08:24:23;;;;;;;11.30;7.77;;;12.10;95.90;;;;;;5029857;28;20463;-84
2022/03/13 08:26:50;;;;;;;14.90;8.17;;;11.90;94.00;;;;;;5029763;28;20552;-84
2022/03/13 08:29:16;;;;;;;11.43;7.73;;;12.10;92.90;;;;;;5030302;28;20489;-84
2022/03/13 08:31:43;;;;;;;11.80;8.30;;;12.20;92.40;;;;;;5039502;28;20967;-84
2022/03/13 08:34:10;;;;;;;12.00;8.47;;;12.30;92.50;;;;;;5038598;28;20461;-84
2022/03/13 08:36:38;;;;;;;12.47;8.43;;;12.40;92.90;;;;;;5038894;28;20456;-83
2022/03/13 08:39:05;;;;;;;9.27;7.60;;;12.70;90.20;;;;;;5027547;28;20462;-80
2022/03/13 08:41:34;;;;;;;10.50;8.20;;;13.20;89.80;;;;;;5033121;28;20501;-81
2022/03/13 08:44:01;;;;;;;11.43;7.60;;;14.20;87.30;;;;;;5035388;28;20464;-82
2022/03/13 08:46:27;;;;;;;9.90;7.80;;;14.20;85.90;;;;;;5021611;28;20469;-81
2022/03/13 08:48:54;;;;;;;12.97;9.40;;;15.50;84.20;;;;;;5019926;28;20520;-82
2022/03/13 08:51:23;;;;;;;13.33;9.00;;;16.40;83.90;;;;;;5022283;28;20461;-80
2022/03/13 08:53:51;;;;;;;11.80;9.10;;;16.50;77.60;;;;;;5038945;28;20522;-81
2022/03/13 08:56:18;;;;;;;11.07;8.80;;;17.50;74.80;;;;;;5039020;28;20475;-80
2022/03/13 08:58:47;;;;;;;11.67;8.67;;;18.30;73.00;;;;;;5039803;28;20452;-83
2022/03/13 09:01:15;;;;;;;10.63;8.30;;;19.30;66.70;;;;;;5038454;28;20460;-81
2022/03/13 09:03:42;;;;;;;14.43;8.80;;;19.20;64.00;;;;;;5027830;28;20456;-82
2022/03/13 09:06:08;;;;;;;10.77;8.47;;;19.90;61.60;;;;;;5039049;28;20486;-83
2022/03/13 09:08:35;;;;;;;11.47;8.90;;;19.70;58.70;;;;;;5039960;28;20489;-81
2022/03/13 09:11:02;;;;;;;11.77;9.47;;;19.60;58.00;;;;;;5039751;28;20480;-82
2022/03/13 09:13:29;;;;;;;12.00;9.00;;;19.70;57.90;;;;;;5019324;28;21069;-82
2022/03/13 09:15:57;;;;;;;12.43;9.83;;;19.80;59.20;;;;;;5037240;28;20538;-82
2022/03/13 09:18:24;;;;;;;12.23;9.33;;;19.90;58.20;;;;;;5039774;28;20514;-82
2022/03/13 09:20:51;;;;;;;12.87;8.73;;;21.50;59.80;;;;;;5039617;28;20463;-82
2022/03/13 09:23:18;;;;;;;14.63;9.93;;;22.90;57.00;;;;;;5031223;28;20476;-82
2022/03/13 09:25:44;;;;;;;11.80;10.30;;;23.50;54.90;;;;;;5030197;28;20477;-82
2022/03/13 09:28:12;;;;;;;12.03;9.70;;;24.50;52.60;;;;;;5039277;28;20480;-82
2022/03/13 09:30:39;;;;;;;12.23;9.40;;;24.70;52.90;;;;;;5021415;28;20450;-81
2022/03/13 09:33:07;;;;;;;11.80;9.60;;;23.90;52.00;;;;;;5026778;28;20467;-83
2022/03/13 09:35:34;;;;;;;13.70;10.93;;;23.70;50.60;;;;;;5039995;28;20548;-78
2022/03/13 09:38:01;;;;;;;13.60;10.53;;;23.50;51.20;;;;;;5039546;28;20457;-81
2022/03/13 09:40:28;;;;;;;13.37;10.20;;;23.20;53.00;;;;;;5036044;28;20842;-82
2022/03/13 09:42:55;;;;;;;11.30;9.30;;;23.20;50.10;;;;;;5037267;28;20528;-80
2022/03/13 09:45:23;;;;;;;12.30;9.60;;;23.70;50.00;;;;;;5033967;28;20473;-81
2022/03/13 09:47:51;;;;;;;11.40;9.73;;;24.30;52.90;;;;;;5021545;28;20453;-83
2022/03/13 09:50:21;;;;;;;10.90;9.30;;;26.00;50.10;;;;;;5025510;28;20465;-82
2022/03/13 09:52:54;;;;;;;11.90;9.03;;;26.10;50.60;;;;;;5030119;28;20472;-80
2022/03/13 09:55:21;;;;;;;19.33;10.43;;;27.70;50.40;;;;;;5034548;28;20477;-83
2022/03/13 09:57:52;;;;;;;13.70;10.50;;;27.70;46.90;;;;;;5037313;28;20449;-81
2022/03/13 10:00:31;;;;;;;11.23;10.03;;;28.20;45.80;;;;;;5037981;28;20449;-82
2022/03/13 10:02:58;;;;;;;10.53;9.43;;;28.50;46.10;;;;;;5034901;28;20451;-83
2022/03/13 10:05:27;;;;;;;10.10;9.07;;;30.00;46.10;;;;;;5017108;28;20489;-83
2022/03/13 10:07:57;;;;;;;10.00;8.80;;;30.80;45.20;;;;;;5019384;28;20469;-83
2022/03/13 10:10:27;;;;;;;12.50;10.43;;;29.80;43.60;;;;;;5037305;28;20796;-82
2022/03/13 10:12:54;;;;;;;11.07;9.87;;;29.90;43.90;;;;;;5037077;28;21030;-82
2022/03/13 10:15:21;;;;;;;10.07;8.97;;;30.10;43.60;;;;;;5037127;28;20480;-82
2022/03/13 10:17:49;;;;;;;11.10;9.90;;;30.10;44.10;;;;;;5037682;28;20455;-83
2022/03/13 10:20:19;;;;;;;11.67;10.03;;;31.40;42.30;;;;;;5037450;28;20455;-83
2022/03/13 10:22:49;;;;;;;9.73;8.73;;;31.40;40.90;;;;;;5038247;28;20445;-83
2022/03/13 10:25:29;;;;;;;11.00;9.90;;;32.00;42.30;;;;;;5033798;28;20473;-83
2022/03/13 10:28:01;;;;;;;11.50;10.30;;;30.90;41.30;;;;;;5034371;28;21012;-83
2022/03/13 10:30:28;;;;;;;11.50;10.30;;;30.70;40.00;;;;;;5035582;28;20445;-83
2022/03/13 10:32:59;;;;;;;17.23;11.73;;;31.50;41.30;;;;;;5034546;28;21206;-83
2022/03/13 10:35:25;;;;;;;12.83;10.63;;;30.40;42.20;;;;;;5032929;28;21010;-82
2022/03/13 10:37:54;;;;;;;10.30;9.27;;;30.30;41.00;;;;;;5036695;28;20463;-83
2022/03/13 10:40:22;;;;;;;12.10;10.27;;;30.80;40.70;;;;;;5031957;28;20454;-82
2022/03/13 10:42:51;;;;;;;10.33;9.07;;;31.00;39.30;;;;;;5035487;28;20456;-81
2022/03/13 10:45:37;;;;;;;10.53;9.43;;;31.20;40.30;;;;;;5031719;28;20480;-81
2022/03/13 10:48:27;;;;;;;9.30;8.40;;;31.40;41.00;;;;;;5030844;28;20467;-81
2022/03/13 10:50:56;;;;;;;10.27;9.20;;;31.30;38.90;;;;;;5038345;28;20487;-82
2022/03/13 10:53:24;;;;;;;9.90;8.90;;;31.90;40.90;;;;;;5030350;28;20548;-82
2022/03/13 10:56:06;;;;;;;11.27;10.20;;;30.70;39.90;;;;;;5027139;28;20479;-83
2022/03/13 10:58:35;;;;;;;11.80;9.90;;;32.10;40.50;;;;;;5034216;28;20473;-83
2022/03/13 11:01:04;;;;;;;10.93;9.83;;;32.10;40.20;;;;;;5019622;28;20460;-83
2022/03/13 11:03:31;;;;;;;11.23;9.50;;;31.50;39.90;;;;;;5034804;28;20461;-83
2022/03/13 11:05:58;;;;;;;11.03;9.20;;;31.90;41.20;;;;;;5038470;28;20487;-81
2022/03/13 11:08:27;;;;;;;10.03;8.90;;;32.00;40.30;;;;;;5038903;28;20452;-82
2022/03/13 11:10:54;;;;;;;9.80;7.27;;;32.20;41.50;;;;;;5038966;28;20449;-83
2022/03/13 11:13:21;;;;;;;9.93;8.73;;;33.90;41.00;;;;;;5029192;28;20471;-83
2022/03/13 11:15:48;;;;;;;12.60;9.53;;;32.80;40.90;;;;;;5036026;28;20503;-82
2022/03/13 11:18:17;;;;;;;9.47;8.50;;;31.30;38.20;;;;;;5034078;28;20810;-82
2022/03/13 11:20:46;;;;;;;14.87;9.63;;;32.50;39.20;;;;;;5042371;28;20516;-83
2022/03/13 11:23:14;;;;;;;12.33;9.70;;;31.50;38.70;;;;;;5040918;28;20464;-83
2022/03/13 11:25:43;;;;;;;10.43;9.43;;;32.30;40.30;;;;;;5041666;28;20483;-82
2022/03/13 11:28:10;;;;;;;11.60;10.40;;;32.20;40.70;;;;;;5040849;28;20455;-82
2022/03/13 11:30:39;;;;;;;10.60;8.93;;;31.90;39.30;;;;;;5034821;28;21004;-82
2022/03/13 11:33:08;;;;;;;8.63;7.73;;;33.30;40.70;;;;;;5031960;28;20507;-82
2022/03/13 11:35:34;;;;;;;9.27;8.37;;;33.20;38.40;;;;;;5027274;28;20474;-81
2022/03/13 11:38:24;;;;;;;7.80;7.10;;;33.50;38.60;;;;;;5028169;28;20441;-83
2022/03/13 11:40:53;;;;;;;8.47;7.67;;;34.90;39.10;;;;;;5037472;28;20504;-82
2022/03/13 11:43:21;;;;;;;8.27;7.30;;;34.80;39.70;;;;;;5043550;28;20460;-83
2022/03/13 11:45:50;;;;;;;8.20;7.40;;;35.40;38.00;;;;;;5037376;28;20476;-81
2022/03/13 11:48:37;;;;;;;9.90;9.00;;;35.60;36.60;;;;;;5037910;28;20441;-82
2022/03/13 11:51:09;;;;;;;8.70;7.90;;;33.90;36.80;;;;;;5033449;28;20449;-82
2022/03/13 11:53:49;;;;;;;9.20;8.30;;;33.20;37.20;;;;;;5028561;28;20458;-81
2022/03/13 11:56:29;;;;;;;8.37;7.40;;;31.80;38.10;;;;;;5026454;28;20512;-83
2022/03/13 11:59:01;;;;;;;8.90;8.00;;;31.80;38.00;;;;;;5036801;28;20898;-82
2022/03/13 12:01:38;;;;;;;8.30;7.50;;;31.20;37.30;;;;;;5025254;28;20997;-83
2022/03/13 12:04:23;;;;;;;8.60;7.67;;;31.10;39.50;;;;;;5030510;28;20453;-82
2022/03/13 12:06:52;;;;;;;10.77;7.60;;;31.20;39.30;;;;;;5045100;28;20464;-83
2022/03/13 12:09:20;;;;;;;10.80;7.70;;;31.70;39.60;;;;;;5045653;28;20461;-82
2022/03/13 12:11:51;;;;;;;8.63;7.20;;;31.90;41.00;;;;;;5044865;28;20464;-84
2022/03/13 12:14:20;;;;;;;8.73;7.83;;;32.40;38.90;;;;;;5041018;28;20452;-83
2022/03/13 12:16:48;;;;;;;8.77;7.87;;;32.30;39.20;;;;;;5038295;28;20453;-82
2022/03/13 12:19:16;;;;;;;9.43;7.90;;;33.20;37.60;;;;;;5038988;28;20555;-83
2022/03/13 12:21:45;;;;;;;7.27;6.57;;;33.30;38.70;;;;;;5033468;28;20514;-82
2022/03/13 12:24:14;;;;;;;8.63;7.73;;;34.80;36.40;;;;;;5038534;28;20496;-83
2022/03/13 12:26:42;;;;;;;8.10;7.30;;;35.00;37.70;;;;;;5039313;28;20452;-82
2022/03/13 12:29:13;;;;;;;7.40;6.70;;;34.90;36.20;;;;;;5037974;28;20531;-84
2022/03/13 12:31:41;;;;;;;8.00;7.20;;;35.70;37.10;;;;;;5028221;28;20520;-83
2022/03/13 12:34:08;;;;;;;9.27;6.37;;;35.20;36.30;;;;;;5037804;28;20461;-83
2022/03/13 12:36:36;;;;;;;7.23;6.20;;;35.70;36.80;;;;;;5023671;28;20450;-83
2022/03/13 12:39:08;;;;;;;6.17;4.93;;;36.30;37.70;;;;;;5018442;28;20532;-83
2022/03/13 12:41:36;;;;;;;6.83;6.13;;;36.10;35.60;;;;;;5020148;28;20449;-84
2022/03/13 12:44:05;;;;;;;6.83;6.00;;;36.00;36.50;;;;;;5040031;28;20452;-83
2022/03/13 12:46:35;;;;;;;6.80;6.20;;;34.30;34.60;;;;;;5040411;28;20976;-83
2022/03/13 12:49:07;;;;;;;7.47;6.63;;;34.10;35.40;;;;;;5041131;28;20449;-84
2022/03/13 12:51:35;;;;;;;7.50;6.80;;;34.20;37.80;;;;;;5041001;28;20467;-83